MET'MAP v2.0
soon released !

Expected late october,
this new version will be
more efficient, smarter,
and hosted on a brand new
server x3 powerfull...
...and still free !


Not compatible ?
Try the mobile version !

LOG IN : | Subscribe | Disclaimer | Who is Orbifly ? |
ICAO code :

TAF - EGNC Carlisle - 15 Dec 2019 11:31 UTC - Data Source NOAA   


- Airport Elevation : 190 ft
- IATA code : CAX
- No reported NOTAMs.


EGNC - Carlisle

Latest METAR recorded : 2015/08/07 15:50 EGNC 071550Z 09004KT 280V100 9999 SCT024 SCT032 15/12 Q1020
TAF TAF EGNC
Valid from the 15 at 09:00 until the 15 at 18:00 UTC


150801Z 1509/1518 22005KT 9999 SCT040
TEMPO 1517/1518 7000 SHRA BKN012

Source NOAA
ATIS : +44 1228 574 123


MET'MAP, your aeronautical weather chart ! - Copyright ORBIFLY December 2007

Programming & Development : Alexandra Zaïnal
Co-Developer : Marc-Olivier Méhu
Technical & hardware support : Manuel Goepfert
Concept & Financing : Baudouin d'Aumeries